createdAt,value
2019-06-01T00:01:49.169Z,4.37
2019-06-01T00:04:20.288Z,9.93
2019-06-01T00:06:50.144Z,6.78
2019-06-01T00:09:20.059Z,5.78
2019-06-01T00:11:49.916Z,5.30
2019-06-01T00:14:19.758Z,4.65
2019-06-01T00:16:50.411Z,5.37
2019-06-01T00:19:20.331Z,5.20
2019-06-01T00:21:50.182Z,5.10
2019-06-01T00:24:20.036Z,4.50
2019-06-01T00:26:49.973Z,5.35
2019-06-01T00:29:19.890Z,5.42
2019-06-01T00:31:49.985Z,4.92
2019-06-01T00:36:49.671Z,6.35
2019-06-01T00:39:19.556Z,5.78
2019-06-01T00:41:50.248Z,5.40
2019-06-01T00:44:21.342Z,5.30
2019-06-01T00:46:51.198Z,5.20
2019-06-01T00:49:21.123Z,5.47
2019-06-01T00:51:52.083Z,4.47
2019-06-01T00:54:22.550Z,5.25
2019-06-01T00:56:53.730Z,5.10
2019-06-01T00:59:56.741Z,5.12
2019-06-01T01:02:26.954Z,5.12
2019-06-01T01:05:11.393Z,5.08
2019-06-01T01:07:41.572Z,5.10
2019-06-01T01:10:11.706Z,4.85
2019-06-01T01:19:43.226Z,4.92
2019-06-01T01:22:13.155Z,4.22
2019-06-01T01:24:43.059Z,4.30
2019-06-01T01:27:12.907Z,4.72
2019-06-01T01:33:34.446Z,6.10
2019-06-01T01:36:04.969Z,6.05
2019-06-01T01:38:34.940Z,6.00
2019-06-01T01:41:04.870Z,5.15
2019-06-01T01:43:34.728Z,6.20
2019-06-01T01:46:05.246Z,5.83
2019-06-01T01:48:35.258Z,6.00
2019-06-01T01:51:07.689Z,5.50
2019-06-01T01:53:37.677Z,5.40
2019-06-01T01:57:26.562Z,5.87
2019-06-01T02:03:07.899Z,5.35
2019-06-01T02:05:31.172Z,5.65
2019-06-01T02:08:01.991Z,5.85
2019-06-01T02:10:32.001Z,5.80
2019-06-01T02:13:02.235Z,5.50
2019-06-01T02:15:32.181Z,5.50
2019-06-01T02:18:02.952Z,6.17
2019-06-01T02:20:32.994Z,5.95
2019-06-01T02:23:03.287Z,5.90
2019-06-01T02:25:33.400Z,6.12
2019-06-01T02:28:16.005Z,5.70
2019-06-01T02:30:48.899Z,5.80
2019-06-01T02:33:23.563Z,5.45
2019-06-01T02:35:54.422Z,6.03
2019-06-01T02:38:24.760Z,5.62
2019-06-01T02:40:54.905Z,6.17
2019-06-01T02:43:25.226Z,5.60
2019-06-01T02:45:56.328Z,6.17
2019-06-01T02:48:26.452Z,6.15
2019-06-01T02:50:57.422Z,6.03
2019-06-01T02:53:27.319Z,5.72
2019-06-01T02:55:57.873Z,6.22
2019-06-01T02:58:28.805Z,5.60
2019-06-01T03:01:14.901Z,6.35
2019-06-01T03:03:44.826Z,5.80
2019-06-01T03:06:16.221Z,5.95
2019-06-01T03:08:48.005Z,6.20
2019-06-01T03:11:19.551Z,5.72
2019-06-01T03:17:37.497Z,6.12
2019-06-01T03:20:07.901Z,5.80
2019-06-01T03:22:38.290Z,5.75
2019-06-01T03:25:18.266Z,6.28
2019-06-01T03:27:50.039Z,4.97
2019-06-01T03:34:04.449Z,5.97
2019-06-01T03:36:33.843Z,5.87
2019-06-01T03:39:06.093Z,5.42
2019-06-01T03:41:36.051Z,5.03
2019-06-01T03:44:06.522Z,5.33
2019-06-01T03:46:36.571Z,6.00
2019-06-01T03:49:07.709Z,5.72
2019-06-01T03:51:37.717Z,5.85
2019-06-01T03:54:08.572Z,5.42
2019-06-01T03:56:39.271Z,5.90
2019-06-01T03:59:09.482Z,5.67
2019-06-01T04:01:39.371Z,5.83
2019-06-01T04:04:09.409Z,5.50
2019-06-01T04:06:39.362Z,5.80
2019-06-01T04:09:09.843Z,5.65
2019-06-01T04:11:39.987Z,5.30
2019-06-01T04:21:10.316Z,6.20
2019-06-01T04:23:40.322Z,6.42
2019-06-01T04:26:10.400Z,5.95
2019-06-01T04:28:40.400Z,5.25
2019-06-01T04:34:55.894Z,6.17
2019-06-01T04:37:25.752Z,6.15
2019-06-01T04:39:55.610Z,6.00
2019-06-01T04:42:25.729Z,6.17
2019-06-01T04:44:55.639Z,5.78
2019-06-01T04:47:27.124Z,5.45
2019-06-01T04:49:56.991Z,5.47
2019-06-01T04:52:26.912Z,6.37
2019-06-01T04:54:56.746Z,6.55
2019-06-01T04:57:26.662Z,5.90
2019-06-01T04:59:56.494Z,5.70
2019-06-01T05:02:26.348Z,6.72
2019-06-01T05:04:56.234Z,6.20
2019-06-01T05:07:26.086Z,6.58
2019-06-01T05:09:55.950Z,5.83
2019-06-01T05:12:25.849Z,7.10
2019-06-01T05:14:55.721Z,6.10
2019-06-01T05:17:25.590Z,6.97
2019-06-01T05:19:55.423Z,6.90
2019-06-01T05:22:25.505Z,7.00
2019-06-01T05:24:55.357Z,6.53
2019-06-01T05:27:25.269Z,7.30
2019-06-01T05:34:09.794Z,6.78
2019-06-01T05:36:39.943Z,6.72
2019-06-01T05:39:10.297Z,7.33
2019-06-01T05:41:41.914Z,7.35
2019-06-01T05:44:12.872Z,6.92
2019-06-01T05:50:24.809Z,7.10
2019-06-01T05:52:54.676Z,7.00
2019-06-01T05:55:25.650Z,7.35
2019-06-01T05:57:55.504Z,7.83
2019-06-01T06:00:42.681Z,7.17
2019-06-01T06:03:15.434Z,6.80
2019-06-01T06:05:44.109Z,6.78
2019-06-01T06:08:14.443Z,6.85
2019-06-01T06:10:44.758Z,6.70
2019-06-01T06:13:15.298Z,6.70
2019-06-01T06:15:45.412Z,6.22
2019-06-01T06:18:15.766Z,6.03
2019-06-01T06:20:45.738Z,6.37
2019-06-01T06:23:16.458Z,6.30
2019-06-01T06:25:46.410Z,5.37
2019-06-01T06:28:16.698Z,6.08
2019-06-01T06:33:15.578Z,5.83
2019-06-01T06:35:45.453Z,5.85
2019-06-01T06:38:15.722Z,5.53
2019-06-01T06:40:45.747Z,5.40
2019-06-01T06:43:22.357Z,5.15
2019-06-01T06:45:47.217Z,4.85
2019-06-01T06:48:17.106Z,5.28
2019-06-01T06:50:46.954Z,5.62
2019-06-01T06:53:25.458Z,5.40
2019-06-01T06:55:48.359Z,4.65
2019-06-01T06:58:18.797Z,4.53
2019-06-01T07:00:48.957Z,4.37
2019-06-01T07:03:21.074Z,4.92
2019-06-01T07:05:51.145Z,4.28
2019-06-01T07:08:21.799Z,4.92
2019-06-01T07:10:51.744Z,4.25
2019-06-01T07:13:21.669Z,4.95
2019-06-01T07:22:19.623Z,4.35
2019-06-01T07:24:50.086Z,3.75
2019-06-01T07:27:20.001Z,4.03
2019-06-01T07:29:49.843Z,4.05
2019-06-01T07:32:20.226Z,3.47
2019-06-01T07:34:50.185Z,3.25
2019-06-01T07:37:22.507Z,3.33
2019-06-01T07:39:52.527Z,3.58
2019-06-01T07:42:24.495Z,4.08
2019-06-01T07:44:54.033Z,3.80
2019-06-01T07:47:24.994Z,3.92
2019-06-01T07:49:54.991Z,3.50
2019-06-01T07:52:26.123Z,3.05
2019-06-01T07:54:56.046Z,3.40
2019-06-01T07:57:25.897Z,2.90
2019-06-01T07:59:55.768Z,6.90
2019-06-01T08:02:27.867Z,8.08
2019-06-01T08:04:57.248Z,11.45
2019-06-01T08:07:29.221Z,10.48
2019-06-01T08:09:59.398Z,11.63
2019-06-01T08:12:31.643Z,12.58
2019-06-01T08:15:02.331Z,10.38
2019-06-01T08:17:33.972Z,19.35
2019-06-01T08:20:06.359Z,13.98
2019-06-01T08:22:36.271Z,12.05
2019-06-01T08:27:35.698Z,5.97
2019-06-01T08:32:38.578Z,9.98
2019-06-01T08:35:09.783Z,8.70
2019-06-01T08:37:39.817Z,6.33
2019-06-01T08:40:10.111Z,10.85
2019-06-01T08:42:39.957Z,9.48
2019-06-01T08:45:09.995Z,10.95
2019-06-01T08:50:09.038Z,8.15
2019-06-01T08:52:39.996Z,5.87
2019-06-01T08:55:12.477Z,8.53
2019-06-01T08:57:42.311Z,9.95
2019-06-01T09:00:12.451Z,10.03
2019-06-01T09:05:23.981Z,2.92
2019-06-01T09:07:42.954Z,2.20
2019-06-01T09:10:13.150Z,2.30
2019-06-01T09:15:13.178Z,2.10
2019-06-01T09:17:46.947Z,2.30
2019-06-01T09:20:19.226Z,2.62
2019-06-01T09:22:49.055Z,2.20
2019-06-01T09:25:19.592Z,2.08
2019-06-01T09:27:49.470Z,2.80
2019-06-01T09:30:19.513Z,3.70
2019-06-01T09:35:18.421Z,2.25
2019-06-01T09:37:48.431Z,2.25
2019-06-01T09:42:47.508Z,2.52
2019-06-01T09:45:17.693Z,5.28
2019-06-01T09:50:17.518Z,4.08
2019-06-01T09:55:16.569Z,3.70
2019-06-01T09:57:46.412Z,10.00
2019-06-01T10:00:16.544Z,6.33
2019-06-01T10:24:04.670Z,4.30
2019-06-01T10:29:05.794Z,9.28
2019-06-01T10:31:39.672Z,6.80
2019-06-01T10:34:07.351Z,7.10
2019-06-01T10:46:54.042Z,3.47
2019-06-01T10:49:23.996Z,2.85
2019-06-01T10:51:53.997Z,4.12
2019-06-01T10:54:23.992Z,3.75
2019-06-01T10:56:53.932Z,3.95
2019-06-01T10:59:23.730Z,5.65
2019-06-01T11:01:53.711Z,3.55
2019-06-01T11:04:23.629Z,4.50
2019-06-01T11:06:53.471Z,2.60
2019-06-01T11:09:23.349Z,3.02
2019-06-01T11:11:53.191Z,7.97
2019-06-01T11:14:23.961Z,3.20
2019-06-01T11:16:56.556Z,2.90
2019-06-01T11:19:26.413Z,2.72
2019-06-01T11:21:56.330Z,3.25
2019-06-01T11:24:26.212Z,3.20
2019-06-01T11:26:56.011Z,3.47
2019-06-01T11:29:25.862Z,3.10
2019-06-01T11:31:55.720Z,3.30
2019-06-01T11:34:25.565Z,3.45
2019-06-01T11:37:04.856Z,7.90
2019-06-01T11:39:26.977Z,2.80
2019-06-01T11:41:58.322Z,3.20
2019-06-01T11:44:28.232Z,2.67
2019-06-01T11:47:03.102Z,3.20
2019-06-01T11:49:41.115Z,2.83
2019-06-01T11:52:11.080Z,3.47
2019-06-01T11:57:11.718Z,3.40
2019-06-01T11:59:41.691Z,3.37
2019-06-01T12:02:11.592Z,5.33
2019-06-01T12:04:42.010Z,2.42
2019-06-01T12:07:17.501Z,4.28
2019-06-01T12:09:44.439Z,3.37
2019-06-01T12:12:14.383Z,4.42
2019-06-01T12:14:44.516Z,3.08
2019-06-01T12:17:14.448Z,2.60
2019-06-01T12:19:44.778Z,3.12
2019-06-01T12:22:14.734Z,2.65
2019-06-01T12:24:45.073Z,5.17
2019-06-01T12:27:15.077Z,2.87
2019-06-01T12:29:45.834Z,2.90
2019-06-01T12:32:16.094Z,2.60
2019-06-01T12:34:46.279Z,3.05
2019-06-01T12:37:34.188Z,2.60
2019-06-01T12:39:52.191Z,3.10
2019-06-01T12:42:19.268Z,2.60
2019-06-01T12:44:49.122Z,10.05
2019-06-01T12:47:19.003Z,4.78
2019-06-01T12:49:48.811Z,2.80
2019-06-01T12:52:18.659Z,2.50
2019-06-01T12:54:49.008Z,2.60
2019-06-01T12:57:19.034Z,2.47
2019-06-01T12:59:48.893Z,2.65
2019-06-01T13:02:18.812Z,2.27
2019-06-01T13:04:49.152Z,2.52
2019-06-01T13:07:19.066Z,2.50
2019-06-01T13:09:49.003Z,2.27
2019-06-01T13:12:18.815Z,2.58
2019-06-01T13:14:49.361Z,2.40
2019-06-01T13:17:19.292Z,2.20
2019-06-01T13:19:49.600Z,3.00
2019-06-01T13:22:19.609Z,3.10
2019-06-01T13:24:49.897Z,3.02
2019-06-01T13:27:19.798Z,2.00
2019-06-01T13:29:50.223Z,1.90
2019-06-01T13:32:20.144Z,2.40
2019-06-01T13:34:51.336Z,2.50
2019-06-01T13:37:21.362Z,2.58
2019-06-01T13:39:56.649Z,2.75
2019-06-01T13:42:22.793Z,2.22
2019-06-01T13:44:53.639Z,2.33
2019-06-01T13:47:23.632Z,2.10
2019-06-01T13:49:54.162Z,2.47
2019-06-01T13:52:24.171Z,2.25
2019-06-01T13:57:24.344Z,2.30
2019-06-01T13:59:55.010Z,2.95
2019-06-01T14:02:25.140Z,3.17
2019-06-01T14:07:24.150Z,2.50
2019-06-01T14:09:55.321Z,1.77
2019-06-01T14:12:25.372Z,2.12
2019-06-01T14:14:55.625Z,2.30
2019-06-01T14:17:25.527Z,2.10
2019-06-01T14:19:55.916Z,2.20
2019-06-01T14:22:25.885Z,1.80
2019-06-01T14:25:10.404Z,2.30
2019-06-01T14:27:27.339Z,1.90
2019-06-01T14:29:57.192Z,1.77
2019-06-01T14:32:27.060Z,2.10
2019-06-01T14:34:57.077Z,2.00
2019-06-01T14:37:26.856Z,1.95
2019-06-01T14:39:57.089Z,2.27
2019-06-01T14:42:27.091Z,3.85
2019-06-01T14:44:58.126Z,2.17
2019-06-01T14:47:28.095Z,2.35
2019-06-01T14:49:58.247Z,1.82
2019-06-01T14:52:28.103Z,2.00
2019-06-01T14:54:58.082Z,2.00
2019-06-01T14:59:56.774Z,1.80
2019-06-01T15:02:26.646Z,2.42
2019-06-01T15:04:56.554Z,1.62
2019-06-01T15:09:56.322Z,1.85
2019-06-01T15:12:26.328Z,1.92
2019-06-01T15:14:57.504Z,1.85
2019-06-01T15:17:27.530Z,1.80
2019-06-01T15:19:58.308Z,1.95
2019-06-01T15:22:28.156Z,1.52
2019-06-01T15:24:58.499Z,1.80
2019-06-01T15:27:29.466Z,1.70
2019-06-01T15:29:59.294Z,1.85
2019-06-01T15:32:29.251Z,4.58
2019-06-01T15:34:59.910Z,2.22
2019-06-01T15:37:31.021Z,2.58
2019-06-01T15:40:00.865Z,2.12
2019-06-01T15:42:30.705Z,2.50
2019-06-01T15:45:01.492Z,1.90
2019-06-01T15:47:31.431Z,1.70
2019-06-01T15:50:02.600Z,2.08
2019-06-01T15:52:32.602Z,2.20
2019-06-01T15:55:02.958Z,2.00
2019-06-01T15:57:32.886Z,1.90
2019-06-01T16:00:03.972Z,1.95
2019-06-01T16:02:35.516Z,1.80
2019-06-01T16:05:10.622Z,2.50
2019-06-01T16:07:40.466Z,1.95
2019-06-01T16:12:39.473Z,2.00
2019-06-01T16:15:09.981Z,2.12
2019-06-01T16:17:39.957Z,1.92
2019-06-01T16:22:39.266Z,2.40
2019-06-01T16:25:09.332Z,1.95
2019-06-01T16:30:08.976Z,2.08
2019-06-01T16:32:40.497Z,2.20
2019-06-01T16:37:39.666Z,1.80
2019-06-01T16:42:41.396Z,1.82
2019-06-01T16:45:11.553Z,1.82
2019-06-01T16:47:41.453Z,1.98
2019-06-01T16:52:40.302Z,1.90
2019-06-01T16:57:39.114Z,2.25
2019-06-01T17:00:10.768Z,1.95
2019-06-01T17:02:42.349Z,1.77
2019-06-01T17:05:13.541Z,2.15
2019-06-01T17:07:43.454Z,2.02
2019-06-01T17:12:44.395Z,2.10
2019-06-01T17:15:16.147Z,2.05
2019-06-01T17:17:46.162Z,2.33
2019-06-01T17:23:18.210Z,2.17
2019-06-01T17:25:34.490Z,1.60
2019-06-01T17:28:07.093Z,2.00
2019-06-01T17:30:37.163Z,1.72
2019-06-01T17:35:36.611Z,1.98
2019-06-01T17:40:42.564Z,1.98
2019-06-01T17:43:09.973Z,2.62
2019-06-01T17:48:23.303Z,2.02
2019-06-01T17:50:40.579Z,2.10
2019-06-01T17:53:11.507Z,2.40
2019-06-01T17:55:42.691Z,2.17
2019-06-01T17:58:12.814Z,1.70
2019-06-01T18:00:43.580Z,1.90
2019-06-01T18:03:15.118Z,1.95
2019-06-01T18:08:14.607Z,1.47
2019-06-01T18:10:53.791Z,1.70
2019-06-01T18:13:16.131Z,1.52
2019-06-01T18:15:49.793Z,1.50
2019-06-01T18:18:17.632Z,1.90
2019-06-01T18:20:49.246Z,2.10
2019-06-01T18:25:49.276Z,2.50
2019-06-01T18:28:19.976Z,2.37
2019-06-01T18:30:50.823Z,2.30
2019-06-01T18:33:21.855Z,2.42
2019-06-01T18:35:51.688Z,4.85
2019-06-01T18:38:21.622Z,2.45
2019-06-01T18:40:51.639Z,2.60
2019-06-01T18:45:50.541Z,2.42
2019-06-01T18:48:20.746Z,2.80
2019-06-01T18:50:50.591Z,3.37
2019-06-01T18:53:20.590Z,2.47
2019-06-01T18:58:20.439Z,2.15
2019-06-01T19:00:53.353Z,2.25
2019-06-01T19:03:24.389Z,2.33
2019-06-01T19:08:29.051Z,2.05
2019-06-01T19:10:59.050Z,2.20
2019-06-01T19:15:58.251Z,2.50
2019-06-01T19:18:28.903Z,3.25
2019-06-01T19:20:58.736Z,3.05
2019-06-01T19:23:28.586Z,2.50
2019-06-01T19:25:58.426Z,2.50
2019-06-01T19:28:28.333Z,3.20
2019-06-01T19:30:58.140Z,3.35
2019-06-01T19:33:28.019Z,3.22
2019-06-01T19:36:00.388Z,3.02
2019-06-01T19:38:31.566Z,2.90
2019-06-01T19:41:01.441Z,3.92
2019-06-01T19:43:31.408Z,3.70
2019-06-01T19:46:01.303Z,3.67
2019-06-01T19:48:31.144Z,3.45
2019-06-01T19:51:01.048Z,3.77
2019-06-01T19:53:31.112Z,3.52
2019-06-01T19:56:00.993Z,3.40
2019-06-01T19:58:30.821Z,5.28
2019-06-01T20:01:00.814Z,5.08
2019-06-01T20:03:30.931Z,5.85
2019-06-01T20:06:00.855Z,4.97
2019-06-01T20:08:30.790Z,6.60
2019-06-01T20:11:00.732Z,7.25
2019-06-01T20:13:30.645Z,5.42
2019-06-01T20:16:00.485Z,7.60
2019-06-01T20:18:30.365Z,7.00
2019-06-01T20:21:00.227Z,6.30
2019-06-01T20:23:30.140Z,6.33
2019-06-01T20:26:02.441Z,5.90
2019-06-01T20:28:32.493Z,6.20
2019-06-01T20:31:02.426Z,6.75
2019-06-01T20:33:32.275Z,5.12
2019-06-01T20:36:02.161Z,5.90
2019-06-01T20:38:32.073Z,6.65
2019-06-01T20:41:03.988Z,5.58
2019-06-01T20:43:33.874Z,5.90
2019-06-01T20:46:03.904Z,5.83
2019-06-01T20:51:04.858Z,5.85
2019-06-01T20:53:36.205Z,8.83
2019-06-01T20:56:07.230Z,8.50
2019-06-01T20:58:39.215Z,5.95
2019-06-01T21:01:10.335Z,7.03
2019-06-01T21:03:43.025Z,6.72
2019-06-01T21:06:14.113Z,6.28
2019-06-01T21:08:45.117Z,8.60
2019-06-01T21:11:17.928Z,6.87
2019-06-01T21:13:49.108Z,6.55
2019-06-01T21:16:20.364Z,5.87
2019-06-01T21:18:51.520Z,6.55
2019-06-01T21:21:25.292Z,7.22
2019-06-01T21:23:57.970Z,7.25
2019-06-01T21:26:29.957Z,7.05
2019-06-01T21:29:00.956Z,6.45
2019-06-01T21:31:31.955Z,5.85
2019-06-01T21:34:02.964Z,5.80
2019-06-01T21:36:33.952Z,6.20
2019-06-01T21:39:07.496Z,6.60
2019-06-01T21:41:40.702Z,6.37
2019-06-01T21:44:12.776Z,6.90
2019-06-01T21:46:51.534Z,5.70
2019-06-01T21:49:24.347Z,6.00
2019-06-01T21:51:55.513Z,5.97
2019-06-01T21:54:36.188Z,5.12
2019-06-01T21:57:07.186Z,5.12
2019-06-01T21:59:38.189Z,5.28
2019-06-01T22:02:10.838Z,5.05
2019-06-01T22:04:41.900Z,4.97
2019-06-01T22:07:13.133Z,5.10
2019-06-01T22:09:44.208Z,5.75
2019-06-01T22:12:15.286Z,5.87
2019-06-01T22:14:46.304Z,5.67
2019-06-01T22:17:17.525Z,5.87
2019-06-01T22:19:48.569Z,5.50
2019-06-01T22:22:19.820Z,5.03
2019-06-01T22:24:50.987Z,5.28
2019-06-01T22:27:22.226Z,5.53
2019-06-01T22:29:53.355Z,5.12
2019-06-01T22:32:27.394Z,5.03
2019-06-01T22:34:57.193Z,5.42
2019-06-01T22:37:28.333Z,4.72
2019-06-01T22:40:00.065Z,5.90
2019-06-01T22:42:32.528Z,3.92
2019-06-01T22:45:06.405Z,4.35
2019-06-01T22:47:37.543Z,5.33
2019-06-01T22:50:09.870Z,6.35
2019-06-01T22:52:40.923Z,4.22
2019-06-01T22:55:13.218Z,3.90
2019-06-01T22:57:44.279Z,3.98
2019-06-01T23:00:16.187Z,5.30
2019-06-01T23:02:47.185Z,5.00
2019-06-01T23:05:18.178Z,4.30
2019-06-01T23:07:49.212Z,5.22
2019-06-01T23:10:24.598Z,4.00
2019-06-01T23:12:53.028Z,4.08
2019-06-01T23:15:25.687Z,4.65
2019-06-01T23:17:56.927Z,3.72
2019-06-01T23:20:28.038Z,3.95
2019-06-01T23:22:59.040Z,3.87
2019-06-01T23:25:30.739Z,10.78
2019-06-01T23:28:01.739Z,4.17
2019-06-01T23:30:32.769Z,3.27
2019-06-01T23:33:03.756Z,3.00
2019-06-01T23:35:34.821Z,3.25
2019-06-01T23:38:05.846Z,3.00
2019-06-01T23:40:36.897Z,2.67
2019-06-01T23:43:08.866Z,3.02
2019-06-01T23:45:39.871Z,3.87
2019-06-01T23:48:11.020Z,4.80
2019-06-01T23:50:42.188Z,3.50
2019-06-01T23:53:14.098Z,3.55
2019-06-01T23:55:45.334Z,3.35
2019-06-01T23:58:16.355Z,3.08
